sensor_id;sensor_type;location;lat;lon;timestamp;P1;durP1;ratioP1;P2;durP2;ratioP2
28455;SDS011;15682;56.742;38.866;2023-04-01T00:00:40;22.9;;;12.4;;
28455;SDS011;15682;56.742;38.866;2023-04-01T00:02:40;22.4;;;12.6;;
28455;SDS011;15682;56.742;38.866;2023-04-01T00:04:40;25.3;;;14.3;;
28455;SDS011;15682;56.742;38.866;2023-04-01T00:06:40;55.6;;;25.6;;
28455;SDS011;15682;56.742;38.866;2023-04-01T00:08:40;36.2;;;18.3;;
28455;SDS011;15682;56.742;38.866;2023-04-01T00:10:40;32.3;;;17.5;;
28455;SDS011;15682;56.742;38.866;2023-04-01T00:12:40;29.4;;;16.1;;
28455;SDS011;15682;56.742;38.866;2023-04-01T00:14:39;31.7;;;17.2;;
28455;SDS011;15682;56.742;38.866;2023-04-01T00:16:39;49.4;;;26.0;;
28455;SDS011;15682;56.742;38.866;2023-04-01T00:18:39;63.8;;;33.5;;
28455;SDS011;15682;56.742;38.866;2023-04-01T00:20:42;31.3;;;17.3;;
28455;SDS011;15682;56.742;38.866;2023-04-01T00:22:39;32.8;;;17.8;;
28455;SDS011;15682;56.742;38.866;2023-04-01T00:24:39;34.1;;;18.4;;
28455;SDS011;15682;56.742;38.866;2023-04-01T00:26:39;27.0;;;15.5;;
28455;SDS011;15682;56.742;38.866;2023-04-01T00:28:40;39.6;;;20.4;;
28455;SDS011;15682;56.742;38.866;2023-04-01T00:30:39;31.9;;;16.7;;
28455;SDS011;15682;56.742;38.866;2023-04-01T00:32:39;37.3;;;18.0;;
28455;SDS011;15682;56.742;38.866;2023-04-01T00:34:39;36.6;;;17.2;;
28455;SDS011;15682;56.742;38.866;2023-04-01T00:36:39;34.3;;;17.3;;
28455;SDS011;15682;56.742;38.866;2023-04-01T00:38:39;41.3;;;20.1;;
28455;SDS011;15682;56.742;38.866;2023-04-01T00:40:40;51.9;;;25.7;;
28455;SDS011;15682;56.742;38.866;2023-04-01T00:42:39;52.5;;;25.8;;
28455;SDS011;15682;56.742;38.866;2023-04-01T00:44:39;36.5;;;19.2;;
28455;SDS011;15682;56.742;38.866;2023-04-01T00:46:39;33.9;;;17.8;;
28455;SDS011;15682;56.742;38.866;2023-04-01T00:48:40;27.7;;;14.9;;
28455;SDS011;15682;56.742;38.866;2023-04-01T00:50:39;31.7;;;16.4;;
28455;SDS011;15682;56.742;38.866;2023-04-01T00:52:39;33.1;;;16.1;;
28455;SDS011;15682;56.742;38.866;2023-04-01T00:54:39;25.5;;;13.3;;
28455;SDS011;15682;56.742;38.866;2023-04-01T00:56:39;20.9;;;12.3;;
28455;SDS011;15682;56.742;38.866;2023-04-01T00:56:48;20.9;;;12.3;;
28455;SDS011;15682;56.742;38.866;2023-04-01T00:56:56;20.9;;;12.3;;
28455;SDS011;15682;56.742;38.866;2023-04-01T00:58:42;18.8;;;11.2;;
28455;SDS011;15682;56.742;38.866;2023-04-01T01:00:40;18.9;;;11.1;;
28455;SDS011;15682;56.742;38.866;2023-04-01T01:02:39;16.7;;;10.1;;
28455;SDS011;15682;56.742;38.866;2023-04-01T01:04:39;16.0;;;9.3;;
28455;SDS011;15682;56.742;38.866;2023-04-01T01:06:41;13.6;;;8.5;;
28455;SDS011;15682;56.742;38.866;2023-04-01T01:08:42;14.4;;;8.6;;
28455;SDS011;15682;56.742;38.866;2023-04-01T01:10:39;13.5;;;8.0;;
28455;SDS011;15682;56.742;38.866;2023-04-01T01:12:39;11.6;;;7.7;;
28455;SDS011;15682;56.742;38.866;2023-04-01T01:14:44;13.9;;;8.2;;
28455;SDS011;15682;56.742;38.866;2023-04-01T01:16:39;13.6;;;8.1;;
28455;SDS011;15682;56.742;38.866;2023-04-01T01:18:39;11.7;;;7.8;;
28455;SDS011;15682;56.742;38.866;2023-04-01T01:22:44;11.0;;;7.2;;
28455;SDS011;15682;56.742;38.866;2023-04-01T01:24:42;10.7;;;7.0;;
28455;SDS011;15682;56.742;38.866;2023-04-01T01:26:42;10.9;;;7.4;;
28455;SDS011;15682;56.742;38.866;2023-04-01T01:28:42;12.2;;;8.0;;
28455;SDS011;15682;56.742;38.866;2023-04-01T01:30:39;15.1;;;8.0;;
28455;SDS011;15682;56.742;38.866;2023-04-01T01:32:41;11.0;;;7.3;;
28455;SDS011;15682;56.742;38.866;2023-04-01T01:34:40;11.9;;;7.9;;
28455;SDS011;15682;56.742;38.866;2023-04-01T01:36:38;11.0;;;7.2;;
28455;SDS011;15682;56.742;38.866;2023-04-01T01:38:38;11.1;;;7.3;;
28455;SDS011;15682;56.742;38.866;2023-04-01T01:40:39;12.3;;;7.9;;
28455;SDS011;15682;56.742;38.866;2023-04-01T01:42:39;12.2;;;7.7;;
28455;SDS011;15682;56.742;38.866;2023-04-01T01:44:38;11.3;;;8.0;;
28455;SDS011;15682;56.742;38.866;2023-04-01T01:46:38;12.8;;;8.2;;
28455;SDS011;15682;56.742;38.866;2023-04-01T01:48:38;10.6;;;7.4;;
28455;SDS011;15682;56.742;38.866;2023-04-01T01:50:38;12.4;;;8.1;;
28455;SDS011;15682;56.742;38.866;2023-04-01T01:52:38;10.8;;;7.6;;
28455;SDS011;15682;56.742;38.866;2023-04-01T01:54:46;12.8;;;7.4;;
28455;SDS011;15682;56.742;38.866;2023-04-01T01:56:38;10.8;;;7.0;;
28455;SDS011;15682;56.742;38.866;2023-04-01T01:58:38;10.7;;;7.1;;
28455;SDS011;15682;56.742;38.866;2023-04-01T02:00:38;11.9;;;8.0;;
28455;SDS011;15682;56.742;38.866;2023-04-01T02:02:38;12.2;;;7.0;;
28455;SDS011;15682;56.742;38.866;2023-04-01T02:04:38;10.9;;;6.5;;
28455;SDS011;15682;56.742;38.866;2023-04-01T02:06:38;10.1;;;6.6;;
28455;SDS011;15682;56.742;38.866;2023-04-01T02:08:39;8.6;;;6.1;;
28455;SDS011;15682;56.742;38.866;2023-04-01T02:10:39;10.8;;;6.7;;
28455;SDS011;15682;56.742;38.866;2023-04-01T02:12:37;11.5;;;7.3;;
28455;SDS011;15682;56.742;38.866;2023-04-01T02:14:39;9.3;;;6.6;;
28455;SDS011;15682;56.742;38.866;2023-04-01T02:16:38;9.5;;;6.7;;
28455;SDS011;15682;56.742;38.866;2023-04-01T02:18:37;11.9;;;7.7;;
28455;SDS011;15682;56.742;38.866;2023-04-01T02:20:37;11.3;;;7.5;;
28455;SDS011;15682;56.742;38.866;2023-04-01T02:22:38;10.1;;;7.3;;
28455;SDS011;15682;56.742;38.866;2023-04-01T02:24:37;10.4;;;7.4;;
28455;SDS011;15682;56.742;38.866;2023-04-01T02:26:37;10.3;;;7.4;;
28455;SDS011;15682;56.742;38.866;2023-04-01T02:28:37;10.9;;;7.5;;
28455;SDS011;15682;56.742;38.866;2023-04-01T02:30:38;11.3;;;7.6;;
28455;SDS011;15682;56.742;38.866;2023-04-01T02:32:37;11.3;;;7.6;;
28455;SDS011;15682;56.742;38.866;2023-04-01T02:34:37;11.6;;;7.8;;
28455;SDS011;15682;56.742;38.866;2023-04-01T02:36:37;11.2;;;7.9;;
28455;SDS011;15682;56.742;38.866;2023-04-01T02:38:37;10.2;;;7.7;;
28455;SDS011;15682;56.742;38.866;2023-04-01T02:40:45;9.6;;;7.7;;
28455;SDS011;15682;56.742;38.866;2023-04-01T02:42:37;11.0;;;7.8;;
28455;SDS011;15682;56.742;38.866;2023-04-01T02:44:37;11.1;;;7.7;;
28455;SDS011;15682;56.742;38.866;2023-04-01T02:46:37;11.2;;;8.0;;
28455;SDS011;15682;56.742;38.866;2023-04-01T02:48:36;11.1;;;8.1;;
28455;SDS011;15682;56.742;38.866;2023-04-01T02:50:36;10.9;;;7.8;;
28455;SDS011;15682;56.742;38.866;2023-04-01T02:52:36;11.3;;;8.2;;
28455;SDS011;15682;56.742;38.866;2023-04-01T02:54:36;11.4;;;7.7;;
28455;SDS011;15682;56.742;38.866;2023-04-01T02:56:36;11.0;;;7.8;;
28455;SDS011;15682;56.742;38.866;2023-04-01T02:58:36;15.0;;;9.0;;
28455;SDS011;15682;56.742;38.866;2023-04-01T03:00:36;11.0;;;8.3;;
28455;SDS011;15682;56.742;38.866;2023-04-01T03:02:37;12.3;;;8.7;;
28455;SDS011;15682;56.742;38.866;2023-04-01T03:04:36;10.9;;;8.1;;
28455;SDS011;15682;56.742;38.866;2023-04-01T03:06:36;11.7;;;8.4;;
28455;SDS011;15682;56.742;38.866;2023-04-01T03:08:36;10.8;;;7.7;;
28455;SDS011;15682;56.742;38.866;2023-04-01T03:10:36;12.5;;;8.2;;
28455;SDS011;15682;56.742;38.866;2023-04-01T03:12:36;11.1;;;8.4;;
28455;SDS011;15682;56.742;38.866;2023-04-01T03:14:36;14.2;;;8.4;;
28455;SDS011;15682;56.742;38.866;2023-04-01T03:16:36;13.3;;;8.2;;
28455;SDS011;15682;56.742;38.866;2023-04-01T03:18:36;11.0;;;8.0;;
28455;SDS011;15682;56.742;38.866;2023-04-01T03:20:36;12.4;;;8.1;;
28455;SDS011;15682;56.742;38.866;2023-04-01T03:22:36;11.7;;;8.9;;
28455;SDS011;15682;56.742;38.866;2023-04-01T03:24:36;10.5;;;7.8;;
28455;SDS011;15682;56.742;38.866;2023-04-01T03:26:36;12.9;;;8.7;;
28455;SDS011;15682;56.742;38.866;2023-04-01T03:28:36;13.0;;;8.8;;
28455;SDS011;15682;56.742;38.866;2023-04-01T03:30:36;13.3;;;8.8;;
28455;SDS011;15682;56.742;38.866;2023-04-01T03:32:36;11.7;;;8.3;;
28455;SDS011;15682;56.742;38.866;2023-04-01T03:34:36;12.0;;;8.8;;
28455;SDS011;15682;56.742;38.866;2023-04-01T03:36:36;12.9;;;9.0;;
28455;SDS011;15682;56.742;38.866;2023-04-01T03:38:36;12.9;;;9.2;;
28455;SDS011;15682;56.742;38.866;2023-04-01T03:40:36;13.1;;;9.1;;
28455;SDS011;15682;56.742;38.866;2023-04-01T03:42:36;13.1;;;9.6;;
28455;SDS011;15682;56.742;38.866;2023-04-01T03:44:35;14.2;;;9.8;;
28455;SDS011;15682;56.742;38.866;2023-04-01T03:46:36;13.9;;;9.0;;
28455;SDS011;15682;56.742;38.866;2023-04-01T03:48:35;12.7;;;9.4;;
28455;SDS011;15682;56.742;38.866;2023-04-01T03:50:35;13.0;;;8.8;;
28455;SDS011;15682;56.742;38.866;2023-04-01T03:52:35;14.4;;;9.4;;
28455;SDS011;15682;56.742;38.866;2023-04-01T03:54:35;15.0;;;9.6;;
28455;SDS011;15682;56.742;38.866;2023-04-01T03:56:35;12.7;;;9.7;;
28455;SDS011;15682;56.742;38.866;2023-04-01T03:58:35;13.7;;;9.2;;
28455;SDS011;15682;56.742;38.866;2023-04-01T04:00:35;12.3;;;9.0;;
28455;SDS011;15682;56.742;38.866;2023-04-01T04:02:35;12.4;;;9.2;;
28455;SDS011;15682;56.742;38.866;2023-04-01T04:04:35;14.5;;;10.1;;
28455;SDS011;15682;56.742;38.866;2023-04-01T04:06:35;12.0;;;9.0;;
28455;SDS011;15682;56.742;38.866;2023-04-01T04:08:35;12.4;;;9.2;;
28455;SDS011;15682;56.742;38.866;2023-04-01T04:10:35;13.5;;;9.6;;
28455;SDS011;15682;56.742;38.866;2023-04-01T04:12:35;14.4;;;10.0;;
28455;SDS011;15682;56.742;38.866;2023-04-01T04:14:35;13.9;;;9.8;;
28455;SDS011;15682;56.742;38.866;2023-04-01T04:16:35;12.9;;;9.5;;
28455;SDS011;15682;56.742;38.866;2023-04-01T04:18:35;14.3;;;10.1;;
28455;SDS011;15682;56.742;38.866;2023-04-01T04:20:35;13.1;;;9.3;;
28455;SDS011;15682;56.742;38.866;2023-04-01T04:22:35;13.0;;;9.2;;
28455;SDS011;15682;56.742;38.866;2023-04-01T04:24:35;13.0;;;9.4;;
28455;SDS011;15682;56.742;38.866;2023-04-01T04:26:35;12.4;;;9.6;;
28455;SDS011;15682;56.742;38.866;2023-04-01T04:28:35;13.7;;;9.6;;
28455;SDS011;15682;56.742;38.866;2023-04-01T04:30:35;14.6;;;9.6;;
28455;SDS011;15682;56.742;38.866;2023-04-01T04:32:35;14.8;;;10.3;;
28455;SDS011;15682;56.742;38.866;2023-04-01T04:34:35;14.9;;;10.8;;
28455;SDS011;15682;56.742;38.866;2023-04-01T04:36:35;15.2;;;10.6;;
28455;SDS011;15682;56.742;38.866;2023-04-01T04:38:35;14.9;;;10.6;;
28455;SDS011;15682;56.742;38.866;2023-04-01T04:40:35;14.5;;;10.0;;
28455;SDS011;15682;56.742;38.866;2023-04-01T04:42:35;14.8;;;10.5;;
28455;SDS011;15682;56.742;38.866;2023-04-01T04:44:35;15.6;;;10.4;;
28455;SDS011;15682;56.742;38.866;2023-04-01T04:46:35;17.1;;;11.4;;
28455;SDS011;15682;56.742;38.866;2023-04-01T04:48:35;16.8;;;10.9;;
28455;SDS011;15682;56.742;38.866;2023-04-01T04:50:35;17.5;;;12.5;;
28455;SDS011;15682;56.742;38.866;2023-04-01T04:52:35;17.9;;;12.4;;
28455;SDS011;15682;56.742;38.866;2023-04-01T04:54:35;18.8;;;13.3;;
28455;SDS011;15682;56.742;38.866;2023-04-01T04:56:35;24.4;;;15.4;;
28455;SDS011;15682;56.742;38.866;2023-04-01T04:58:35;19.8;;;13.4;;
28455;SDS011;15682;56.742;38.866;2023-04-01T05:00:35;18.6;;;13.2;;
28455;SDS011;15682;56.742;38.866;2023-04-01T05:02:35;18.0;;;13.2;;
28455;SDS011;15682;56.742;38.866;2023-04-01T05:04:35;23.0;;;13.9;;
28455;SDS011;15682;56.742;38.866;2023-04-01T05:06:35;20.4;;;14.3;;
28455;SDS011;15682;56.742;38.866;2023-04-01T05:08:35;26.5;;;14.5;;
28455;SDS011;15682;56.742;38.866;2023-04-01T05:13:57;21.7;;;14.8;;
28455;SDS011;15682;56.742;38.866;2023-04-01T05:14:35;22.3;;;14.1;;
28455;SDS011;15682;56.742;38.866;2023-04-01T05:16:35;18.7;;;13.3;;
28455;SDS011;15682;56.742;38.866;2023-04-01T05:18:35;23.6;;;14.8;;
28455;SDS011;15682;56.742;38.866;2023-04-01T05:20:35;18.4;;;12.8;;
28455;SDS011;15682;56.742;38.866;2023-04-01T05:22:35;20.3;;;13.1;;
28455;SDS011;15682;56.742;38.866;2023-04-01T05:24:35;22.0;;;13.6;;
28455;SDS011;15682;56.742;38.866;2023-04-01T05:26:35;38.9;;;23.3;;
28455;SDS011;15682;56.742;38.866;2023-04-01T05:28:35;19.6;;;12.4;;
28455;SDS011;15682;56.742;38.866;2023-04-01T05:30:35;19.3;;;12.9;;
28455;SDS011;15682;56.742;38.866;2023-04-01T05:32:35;36.3;;;20.5;;
28455;SDS011;15682;56.742;38.866;2023-04-01T05:34:35;47.1;;;24.7;;
28455;SDS011;15682;56.742;38.866;2023-04-01T05:36:35;28.9;;;17.4;;
28455;SDS011;15682;56.742;38.866;2023-04-01T05:38:35;49.5;;;24.7;;
28455;SDS011;15682;56.742;38.866;2023-04-01T05:40:35;108.8;;;51.1;;
28455;SDS011;15682;56.742;38.866;2023-04-01T05:42:35;112.1;;;50.7;;
28455;SDS011;15682;56.742;38.866;2023-04-01T05:44:35;59.5;;;31.0;;
28455;SDS011;15682;56.742;38.866;2023-04-01T05:46:35;48.9;;;26.2;;
28455;SDS011;15682;56.742;38.866;2023-04-01T05:48:35;45.1;;;24.3;;
28455;SDS011;15682;56.742;38.866;2023-04-01T05:50:35;55.9;;;29.2;;
28455;SDS011;15682;56.742;38.866;2023-04-01T05:52:35;80.5;;;40.6;;
28455;SDS011;15682;56.742;38.866;2023-04-01T05:54:35;111.1;;;51.1;;
28455;SDS011;15682;56.742;38.866;2023-04-01T05:56:35;77.6;;;36.7;;
28455;SDS011;15682;56.742;38.866;2023-04-01T05:58:35;80.4;;;38.3;;
28455;SDS011;15682;56.742;38.866;2023-04-01T06:00:35;69.6;;;32.7;;
28455;SDS011;15682;56.742;38.866;2023-04-01T06:02:35;53.4;;;24.0;;
28455;SDS011;15682;56.742;38.866;2023-04-01T06:04:37;43.2;;;21.4;;
28455;SDS011;15682;56.742;38.866;2023-04-01T06:06:35;16.3;;;9.9;;
28455;SDS011;15682;56.742;38.866;2023-04-01T06:08:35;41.3;;;18.0;;
28455;SDS011;15682;56.742;38.866;2023-04-01T06:10:37;58.5;;;25.6;;
28455;SDS011;15682;56.742;38.866;2023-04-01T06:12:39;99.1;;;44.2;;
28455;SDS011;15682;56.742;38.866;2023-04-01T06:14:37;96.3;;;43.1;;
28455;SDS011;15682;56.742;38.866;2023-04-01T06:16:39;43.4;;;21.8;;
28455;SDS011;15682;56.742;38.866;2023-04-01T06:18:40;46.2;;;20.4;;
28455;SDS011;15682;56.742;38.866;2023-04-01T06:20:37;85.6;;;35.7;;
28455;SDS011;15682;56.742;38.866;2023-04-01T06:22:45;34.0;;;16.1;;
28455;SDS011;15682;56.742;38.866;2023-04-01T06:24:39;18.8;;;8.6;;
28455;SDS011;15682;56.742;38.866;2023-04-01T06:26:37;15.8;;;8.3;;
28455;SDS011;15682;56.742;38.866;2023-04-01T06:28:46;21.5;;;9.9;;
28455;SDS011;15682;56.742;38.866;2023-04-01T06:30:38;39.6;;;21.5;;
28455;SDS011;15682;56.742;38.866;2023-04-01T06:32:39;29.9;;;15.0;;
28455;SDS011;15682;56.742;38.866;2023-04-01T06:34:42;33.6;;;17.0;;
28455;SDS011;15682;56.742;38.866;2023-04-01T06:36:39;21.0;;;11.5;;
28455;SDS011;15682;56.742;38.866;2023-04-01T06:38:39;8.0;;;4.8;;
28455;SDS011;15682;56.742;38.866;2023-04-01T06:40:40;12.2;;;7.4;;
28455;SDS011;15682;56.742;38.866;2023-04-01T06:42:40;26.4;;;16.3;;
28455;SDS011;15682;56.742;38.866;2023-04-01T06:44:38;21.8;;;13.7;;
28455;SDS011;15682;56.742;38.866;2023-04-01T06:46:37;10.8;;;6.7;;
28455;SDS011;15682;56.742;38.866;2023-04-01T06:48:40;23.1;;;11.5;;
28455;SDS011;15682;56.742;38.866;2023-04-01T06:50:36;12.9;;;7.9;;
28455;SDS011;15682;56.742;38.866;2023-04-01T06:52:38;6.7;;;4.4;;
28455;SDS011;15682;56.742;38.866;2023-04-01T06:54:36;7.3;;;5.0;;
28455;SDS011;15682;56.742;38.866;2023-04-01T06:56:36;6.2;;;4.0;;
28455;SDS011;15682;56.742;38.866;2023-04-01T06:58:37;6.4;;;4.4;;
28455;SDS011;15682;56.742;38.866;2023-04-01T07:00:36;5.5;;;4.3;;
28455;SDS011;15682;56.742;38.866;2023-04-01T07:02:37;4.8;;;3.6;;
28455;SDS011;15682;56.742;38.866;2023-04-01T07:04:37;7.0;;;4.7;;
28455;SDS011;15682;56.742;38.866;2023-04-01T07:06:38;5.7;;;3.5;;
28455;SDS011;15682;56.742;38.866;2023-04-01T07:08:37;5.1;;;3.6;;
28455;SDS011;15682;56.742;38.866;2023-04-01T07:10:40;5.4;;;3.9;;
28455;SDS011;15682;56.742;38.866;2023-04-01T07:12:43;7.0;;;3.7;;
28455;SDS011;15682;56.742;38.866;2023-04-01T07:14:37;5.5;;;3.5;;
28455;SDS011;15682;56.742;38.866;2023-04-01T07:16:37;5.9;;;3.2;;
28455;SDS011;15682;56.742;38.866;2023-04-01T07:18:38;7.9;;;4.1;;
28455;SDS011;15682;56.742;38.866;2023-04-01T07:20:37;6.5;;;3.6;;
28455;SDS011;15682;56.742;38.866;2023-04-01T07:22:38;5.7;;;3.1;;
28455;SDS011;15682;56.742;38.866;2023-04-01T07:24:37;6.4;;;3.5;;
28455;SDS011;15682;56.742;38.866;2023-04-01T07:26:37;3.6;;;2.9;;
28455;SDS011;15682;56.742;38.866;2023-04-01T07:29:00;3.3;;;2.4;;
28455;SDS011;15682;56.742;38.866;2023-04-01T07:30:40;3.8;;;2.1;;
28455;SDS011;15682;56.742;38.866;2023-04-01T07:32:38;8.8;;;5.4;;
28455;SDS011;15682;56.742;38.866;2023-04-01T07:34:39;4.5;;;3.1;;
28455;SDS011;15682;56.742;38.866;2023-04-01T07:35:46;4.5;;;3.1;;
28455;SDS011;15682;56.742;38.866;2023-04-01T07:35:56;4.5;;;3.1;;
28455;SDS011;15682;56.742;38.866;2023-04-01T07:36:38;4.8;;;2.6;;
28455;SDS011;15682;56.742;38.866;2023-04-01T07:38:39;4.1;;;2.5;;
28455;SDS011;15682;56.742;38.866;2023-04-01T07:40:39;3.4;;;2.1;;
28455;SDS011;15682;56.742;38.866;2023-04-01T07:42:40;5.4;;;2.6;;
28455;SDS011;15682;56.742;38.866;2023-04-01T07:44:39;6.9;;;2.5;;
28455;SDS011;15682;56.742;38.866;2023-04-01T07:46:41;3.4;;;2.2;;
28455;SDS011;15682;56.742;38.866;2023-04-01T07:48:39;4.2;;;2.4;;
28455;SDS011;15682;56.742;38.866;2023-04-01T07:50:38;5.2;;;2.4;;
28455;SDS011;15682;56.742;38.866;2023-04-01T07:52:40;7.1;;;3.5;;
28455;SDS011;15682;56.742;38.866;2023-04-01T07:54:39;6.1;;;3.2;;
28455;SDS011;15682;56.742;38.866;2023-04-01T07:56:39;3.7;;;2.5;;
28455;SDS011;15682;56.742;38.866;2023-04-01T07:58:41;5.4;;;2.8;;
28455;SDS011;15682;56.742;38.866;2023-04-01T08:00:40;4.2;;;2.6;;
28455;SDS011;15682;56.742;38.866;2023-04-01T08:02:42;5.4;;;2.7;;
28455;SDS011;15682;56.742;38.866;2023-04-01T08:04:41;4.3;;;2.6;;
28455;SDS011;15682;56.742;38.866;2023-04-01T08:06:39;3.1;;;2.2;;
28455;SDS011;15682;56.742;38.866;2023-04-01T08:08:42;3.9;;;2.2;;
28455;SDS011;15682;56.742;38.866;2023-04-01T08:10:39;3.0;;;2.1;;
28455;SDS011;15682;56.742;38.866;2023-04-01T08:12:41;2.8;;;2.1;;
28455;SDS011;15682;56.742;38.866;2023-04-01T08:14:41;4.4;;;2.2;;
28455;SDS011;15682;56.742;38.866;2023-04-01T08:16:41;9.9;;;3.7;;
28455;SDS011;15682;56.742;38.866;2023-04-01T08:18:40;3.7;;;2.5;;
28455;SDS011;15682;56.742;38.866;2023-04-01T08:20:40;6.9;;;2.5;;
28455;SDS011;15682;56.742;38.866;2023-04-01T08:22:40;3.7;;;2.4;;
28455;SDS011;15682;56.742;38.866;2023-04-01T08:24:40;4.1;;;2.5;;
28455;SDS011;15682;56.742;38.866;2023-04-01T08:26:40;3.7;;;2.5;;
28455;SDS011;15682;56.742;38.866;2023-04-01T08:28:40;12.3;;;4.1;;
28455;SDS011;15682;56.742;38.866;2023-04-01T08:30:40;4.2;;;2.5;;
28455;SDS011;15682;56.742;38.866;2023-04-01T08:32:39;5.7;;;2.5;;
28455;SDS011;15682;56.742;38.866;2023-04-01T08:34:39;4.3;;;2.4;;
28455;SDS011;15682;56.742;38.866;2023-04-01T08:36:40;7.4;;;2.8;;
28455;SDS011;15682;56.742;38.866;2023-04-01T08:38:40;32.1;;;14.4;;
28455;SDS011;15682;56.742;38.866;2023-04-01T08:40:50;22.4;;;9.6;;
28455;SDS011;15682;56.742;38.866;2023-04-01T08:42:50;15.3;;;7.6;;
28455;SDS011;15682;56.742;38.866;2023-04-01T08:46:52;9.9;;;5.8;;
28455;SDS011;15682;56.742;38.866;2023-04-01T08:48:43;5.7;;;2.9;;
28455;SDS011;15682;56.742;38.866;2023-04-01T08:52:41;19.2;;;11.1;;
28455;SDS011;15682;56.742;38.866;2023-04-01T08:54:46;29.0;;;17.4;;
28455;SDS011;15682;56.742;38.866;2023-04-01T08:56:40;14.0;;;7.9;;
28455;SDS011;15682;56.742;38.866;2023-04-01T09:00:42;4.0;;;3.0;;
28455;SDS011;15682;56.742;38.866;2023-04-01T09:02:45;3.4;;;2.4;;
28455;SDS011;15682;56.742;38.866;2023-04-01T09:06:44;5.1;;;3.7;;
28455;SDS011;15682;56.742;38.866;2023-04-01T09:08:45;3.8;;;2.7;;
28455;SDS011;15682;56.742;38.866;2023-04-01T09:10:45;3.8;;;2.3;;
28455;SDS011;15682;56.742;38.866;2023-04-01T09:14:46;3.2;;;2.2;;
28455;SDS011;15682;56.742;38.866;2023-04-01T09:16:45;4.1;;;2.3;;
28455;SDS011;15682;56.742;38.866;2023-04-01T09:20:52;3.9;;;2.4;;
28455;SDS011;15682;56.742;38.866;2023-04-01T09:22:44;3.4;;;2.5;;
28455;SDS011;15682;56.742;38.866;2023-04-01T09:24:44;4.0;;;2.9;;
28455;SDS011;15682;56.742;38.866;2023-04-01T09:26:44;3.2;;;2.5;;
28455;SDS011;15682;56.742;38.866;2023-04-01T09:28:42;3.7;;;2.9;;
28455;SDS011;15682;56.742;38.866;2023-04-01T09:32:53;4.2;;;3.3;;
28455;SDS011;15682;56.742;38.866;2023-04-01T09:34:45;5.1;;;3.7;;
28455;SDS011;15682;56.742;38.866;2023-04-01T09:36:43;5.6;;;3.5;;
28455;SDS011;15682;56.742;38.866;2023-04-01T09:38:44;5.0;;;3.6;;
28455;SDS011;15682;56.742;38.866;2023-04-01T09:40:42;4.4;;;3.0;;
28455;SDS011;15682;56.742;38.866;2023-04-01T09:42:43;4.2;;;3.3;;
28455;SDS011;15682;56.742;38.866;2023-04-01T09:44:42;5.4;;;3.8;;
28455;SDS011;15682;56.742;38.866;2023-04-01T09:46:48;5.5;;;3.0;;
28455;SDS011;15682;56.742;38.866;2023-04-01T09:48:54;6.3;;;3.2;;
28455;SDS011;15682;56.742;38.866;2023-04-01T09:50:44;4.3;;;2.9;;
28455;SDS011;15682;56.742;38.866;2023-04-01T09:52:42;4.2;;;2.8;;
28455;SDS011;15682;56.742;38.866;2023-04-01T09:54:46;4.3;;;2.7;;
28455;SDS011;15682;56.742;38.866;2023-04-01T09:56:49;3.2;;;2.6;;
28455;SDS011;15682;56.742;38.866;2023-04-01T10:00:46;3.2;;;2.4;;
28455;SDS011;15682;56.742;38.866;2023-04-01T10:04:54;3.4;;;2.7;;
28455;SDS011;15682;56.742;38.866;2023-04-01T10:08:47;4.2;;;2.9;;
28455;SDS011;15682;56.742;38.866;2023-04-01T10:10:47;3.4;;;2.9;;
28455;SDS011;15682;56.742;38.866;2023-04-01T10:12:50;3.5;;;2.8;;
28455;SDS011;15682;56.742;38.866;2023-04-01T10:14:46;3.5;;;2.8;;
28455;SDS011;15682;56.742;38.866;2023-04-01T10:18:51;4.1;;;3.2;;
28455;SDS011;15682;56.742;38.866;2023-04-01T10:22:47;4.0;;;3.0;;
28455;SDS011;15682;56.742;38.866;2023-04-01T10:24:53;4.7;;;3.4;;
28455;SDS011;15682;56.742;38.866;2023-04-01T10:26:50;6.0;;;3.0;;
28455;SDS011;15682;56.742;38.866;2023-04-01T10:28:49;4.4;;;3.4;;
28455;SDS011;15682;56.742;38.866;2023-04-01T10:30:54;5.8;;;3.7;;
28455;SDS011;15682;56.742;38.866;2023-04-01T10:32:47;5.4;;;3.8;;
28455;SDS011;15682;56.742;38.866;2023-04-01T10:34:48;4.6;;;3.7;;
28455;SDS011;15682;56.742;38.866;2023-04-01T10:44:49;5.3;;;3.6;;
28455;SDS011;15682;56.742;38.866;2023-04-01T10:46:49;4.6;;;3.7;;
28455;SDS011;15682;56.742;38.866;2023-04-01T10:48:49;5.8;;;3.9;;
28455;SDS011;15682;56.742;38.866;2023-04-01T10:50:53;4.3;;;3.4;;
28455;SDS011;15682;56.742;38.866;2023-04-01T10:52:52;5.8;;;4.0;;
28455;SDS011;15682;56.742;38.866;2023-04-01T10:54:45;13.4;;;5.6;;
28455;SDS011;15682;56.742;38.866;2023-04-01T10:56:46;7.3;;;5.3;;
28455;SDS011;15682;56.742;38.866;2023-04-01T11:04:57;12.1;;;6.7;;
28455;SDS011;15682;56.742;38.866;2023-04-01T11:06:51;10.1;;;5.9;;
28455;SDS011;15682;56.742;38.866;2023-04-01T11:08:56;6.9;;;5.0;;
28455;SDS011;15682;56.742;38.866;2023-04-01T11:12:51;7.5;;;5.0;;
28455;SDS011;15682;56.742;38.866;2023-04-01T11:16:47;6.3;;;5.0;;
28455;SDS011;15682;56.742;38.866;2023-04-01T11:18:50;8.3;;;5.6;;
28455;SDS011;15682;56.742;38.866;2023-04-01T11:20:51;8.8;;;6.0;;
28455;SDS011;15682;56.742;38.866;2023-04-01T11:22:48;6.7;;;5.1;;
28455;SDS011;15682;56.742;38.866;2023-04-01T11:24:48;7.9;;;5.9;;
28455;SDS011;15682;56.742;38.866;2023-04-01T11:26:49;6.0;;;4.9;;
28455;SDS011;15682;56.742;38.866;2023-04-01T11:28:48;7.2;;;4.5;;
28455;SDS011;15682;56.742;38.866;2023-04-01T11:30:51;5.3;;;4.0;;
28455;SDS011;15682;56.742;38.866;2023-04-01T11:32:47;5.7;;;4.7;;
28455;SDS011;15682;56.742;38.866;2023-04-01T11:34:50;5.3;;;4.5;;
28455;SDS011;15682;56.742;38.866;2023-04-01T11:36:47;6.0;;;4.5;;
28455;SDS011;15682;56.742;38.866;2023-04-01T11:38:49;6.3;;;4.8;;
28455;SDS011;15682;56.742;38.866;2023-04-01T11:40:46;6.0;;;4.5;;
28455;SDS011;15682;56.742;38.866;2023-04-01T11:42:46;7.7;;;5.4;;
28455;SDS011;15682;56.742;38.866;2023-04-01T11:44:47;5.1;;;4.0;;
28455;SDS011;15682;56.742;38.866;2023-04-01T11:46:50;7.8;;;5.5;;
28455;SDS011;15682;56.742;38.866;2023-04-01T11:48:50;10.7;;;6.6;;
28455;SDS011;15682;56.742;38.866;2023-04-01T11:50:51;8.0;;;5.7;;
28455;SDS011;15682;56.742;38.866;2023-04-01T11:54:51;13.6;;;8.3;;
28455;SDS011;15682;56.742;38.866;2023-04-01T11:56:50;15.4;;;9.5;;
28455;SDS011;15682;56.742;38.866;2023-04-01T11:58:51;26.3;;;12.9;;
28455;SDS011;15682;56.742;38.866;2023-04-01T12:00:50;14.7;;;8.5;;
28455;SDS011;15682;56.742;38.866;2023-04-01T12:02:48;19.3;;;9.0;;
28455;SDS011;15682;56.742;38.866;2023-04-01T12:04:53;28.9;;;13.1;;
28455;SDS011;15682;56.742;38.866;2023-04-01T12:06:48;43.3;;;17.4;;
28455;SDS011;15682;56.742;38.866;2023-04-01T12:08:46;29.4;;;14.1;;
28455;SDS011;15682;56.742;38.866;2023-04-01T12:10:46;19.2;;;10.6;;
28455;SDS011;15682;56.742;38.866;2023-04-01T12:12:48;26.3;;;12.9;;
28455;SDS011;15682;56.742;38.866;2023-04-01T12:14:49;21.9;;;11.9;;
28455;SDS011;15682;56.742;38.866;2023-04-01T12:16:49;19.8;;;11.2;;
28455;SDS011;15682;56.742;38.866;2023-04-01T12:18:48;12.6;;;8.1;;
28455;SDS011;15682;56.742;38.866;2023-04-01T12:20:49;14.0;;;8.2;;
28455;SDS011;15682;56.742;38.866;2023-04-01T12:22:49;11.8;;;8.0;;
28455;SDS011;15682;56.742;38.866;2023-04-01T12:24:47;32.7;;;16.1;;
28455;SDS011;15682;56.742;38.866;2023-04-01T12:26:48;33.1;;;16.8;;
28455;SDS011;15682;56.742;38.866;2023-04-01T12:28:50;28.7;;;15.9;;
28455;SDS011;15682;56.742;38.866;2023-04-01T12:30:49;26.5;;;14.1;;
28455;SDS011;15682;56.742;38.866;2023-04-01T12:32:48;13.0;;;8.7;;
28455;SDS011;15682;56.742;38.866;2023-04-01T12:34:49;21.1;;;12.7;;
28455;SDS011;15682;56.742;38.866;2023-04-01T12:36:50;21.1;;;11.8;;
28455;SDS011;15682;56.742;38.866;2023-04-01T12:38:50;16.1;;;10.7;;
28455;SDS011;15682;56.742;38.866;2023-04-01T12:40:51;22.3;;;13.6;;
28455;SDS011;15682;56.742;38.866;2023-04-01T12:42:51;24.6;;;15.4;;